<?xml version="1.0" encoding="UTF-8" standalone="no" ?>
<gpx xmlns="http://www.topografix.com/GPX/1/1" xmlns:xsi="http://www.w3.org/2001/XMLSchema-instance" xsi:schemaLocation="http://www.topografix.com/GPX/1/1 http://www.topografix.com/GPX/1/1/gpx.xsd" version="1.1" creator="VisuGPX - https://www.visugpx.com">
  <metadata>
    <name>ChailléOrmeaux_Boucles_19km</name>
    <desc><![CDATA[gnerando idor:6553433_6553489_6956451_7846715_7847315_8111388_8144845]]></desc>
  </metadata>
  <trk>
    <name><![CDATA[NesmyAulne_10km-7846715]]></name>
    <extensions>
      <line xmlns="http://www.topografix.com/GPX/gpx_style/0/2">
        <color>000088</color>
        <width>4</width>
      </line>
    </extensions>
    <trkseg>
      <trkpt lat="46.59205" lon="-1.39947">
        <ele>63</ele>
        <time>2023-11-05T17:55:58Z</time>
      </trkpt>
      <trkpt lat="46.59376" lon="-1.39929">
        <ele>60</ele>
        <time>2023-11-05T17:59:47Z</time>
      </trkpt>
      <trkpt lat="46.59461" lon="-1.39771">
        <ele>55</ele>
        <time>2023-11-05T18:02:51Z</time>
      </trkpt>
      <trkpt lat="46.60157" lon="-1.39616">
        <ele>57</ele>
        <time>2023-11-05T18:18:30Z</time>
      </trkpt>
      <trkpt lat="46.60319" lon="-1.39449">
        <ele>48</ele>
        <time>2023-11-05T18:22:55Z</time>
      </trkpt>
      <trkpt lat="46.60467" lon="-1.39487">
        <ele>41</ele>
        <time>2023-11-05T18:26:16Z</time>
      </trkpt>
      <trkpt lat="46.60608" lon="-1.39372">
        <ele>36</ele>
        <time>2023-11-05T18:29:52Z</time>
      </trkpt>
      <trkpt lat="46.60632" lon="-1.39243">
        <ele>35</ele>
        <time>2023-11-05T18:31:54Z</time>
      </trkpt>
      <trkpt lat="46.60688" lon="-1.39221">
        <ele>36</ele>
        <time>2023-11-05T18:33:11Z</time>
      </trkpt>
      <trkpt lat="46.60859" lon="-1.39372">
        <ele>39</ele>
        <time>2023-11-05T18:37:38Z</time>
      </trkpt>
      <trkpt lat="46.61139" lon="-1.39651">
        <ele>35</ele>
        <time>2023-11-05T18:45:11Z</time>
      </trkpt>
      <trkpt lat="46.61136" lon="-1.39822">
        <ele>32</ele>
        <time>2023-11-05T18:47:48Z</time>
      </trkpt>
      <trkpt lat="46.61224" lon="-1.39861">
        <ele>33</ele>
        <time>2023-11-05T18:49:51Z</time>
      </trkpt>
      <trkpt lat="46.61269" lon="-1.39998">
        <ele>35</ele>
        <time>2023-11-05T18:52:10Z</time>
      </trkpt>
      <trkpt lat="46.61498" lon="-1.40071">
        <ele>35</ele>
        <time>2023-11-05T18:57:23Z</time>
      </trkpt>
      <trkpt lat="46.61581" lon="-1.40273">
        <ele>31</ele>
        <time>2023-11-05T19:00:59Z</time>
      </trkpt>
      <trkpt lat="46.61652" lon="-1.40505">
        <ele>33</ele>
        <time>2023-11-05T19:04:51Z</time>
      </trkpt>
      <trkpt lat="46.6174" lon="-1.40526">
        <ele>32</ele>
        <time>2023-11-05T19:06:50Z</time>
      </trkpt>
      <trkpt lat="46.61829" lon="-1.41062">
        <ele>34</ele>
        <time>2023-11-05T19:15:16Z</time>
      </trkpt>
      <trkpt lat="46.61705" lon="-1.41174">
        <ele>37</ele>
        <time>2023-11-05T19:18:31Z</time>
      </trkpt>
      <trkpt lat="46.61613" lon="-1.41376">
        <ele>43</ele>
        <time>2023-11-05T19:22:13Z</time>
      </trkpt>
      <trkpt lat="46.61504" lon="-1.41432">
        <ele>42</ele>
        <time>2023-11-05T19:24:47Z</time>
      </trkpt>
      <trkpt lat="46.61625" lon="-1.41805">
        <ele>51</ele>
        <time>2023-11-05T19:31:05Z</time>
      </trkpt>
      <trkpt lat="46.61846" lon="-1.42135">
        <ele>48</ele>
        <time>2023-11-05T19:38:07Z</time>
      </trkpt>
      <trkpt lat="46.61991" lon="-1.42092">
        <ele>43</ele>
        <time>2023-11-05T19:41:25Z</time>
      </trkpt>
      <trkpt lat="46.61952" lon="-1.42243">
        <ele>42</ele>
        <time>2023-11-05T19:43:53Z</time>
      </trkpt>
      <trkpt lat="46.61949" lon="-1.42247">
        <ele>42</ele>
        <time>2023-11-05T19:43:58Z</time>
      </trkpt>
      <trkpt lat="46.61773" lon="-1.42354">
        <ele>49</ele>
        <time>2023-11-05T19:48:13Z</time>
      </trkpt>
      <trkpt lat="46.61669" lon="-1.42247">
        <ele>52</ele>
        <time>2023-11-05T19:51:03Z</time>
      </trkpt>
      <trkpt lat="46.61136" lon="-1.42354">
        <ele>50</ele>
        <time>2023-11-05T20:03:01Z</time>
      </trkpt>
      <trkpt lat="46.60991" lon="-1.42547">
        <ele>50</ele>
        <time>2023-11-05T20:07:23Z</time>
      </trkpt>
      <trkpt lat="46.60894" lon="-1.42534">
        <ele>52</ele>
        <time>2023-11-05T20:09:33Z</time>
      </trkpt>
      <trkpt lat="46.6062" lon="-1.42191">
        <ele>57</ele>
        <time>2023-11-05T20:17:35Z</time>
      </trkpt>
      <trkpt lat="46.60579" lon="-1.42045">
        <ele>59</ele>
        <time>2023-11-05T20:20:00Z</time>
      </trkpt>
      <trkpt lat="46.60661" lon="-1.41912">
        <ele>57</ele>
        <time>2023-11-05T20:22:44Z</time>
      </trkpt>
      <trkpt lat="46.60293" lon="-1.41479">
        <ele>57</ele>
        <time>2023-11-05T20:33:15Z</time>
      </trkpt>
      <trkpt lat="46.5988" lon="-1.41178">
        <ele>66</ele>
        <time>2023-11-05T20:43:31Z</time>
      </trkpt>
      <trkpt lat="46.59777" lon="-1.412">
        <ele>67</ele>
        <time>2023-11-05T20:45:50Z</time>
      </trkpt>
      <trkpt lat="46.59544" lon="-1.41058">
        <ele>67</ele>
        <time>2023-11-05T20:51:27Z</time>
      </trkpt>
      <trkpt lat="46.5944" lon="-1.40981">
        <ele>67</ele>
        <time>2023-11-05T20:54:03Z</time>
      </trkpt>
      <trkpt lat="46.59352" lon="-1.40844">
        <ele>65</ele>
        <time>2023-11-05T20:56:55Z</time>
      </trkpt>
      <trkpt lat="46.59181" lon="-1.40629">
        <ele>59</ele>
        <time>2023-11-05T21:01:57Z</time>
      </trkpt>
      <trkpt lat="46.59051" lon="-1.40535">
        <ele>57</ele>
        <time>2023-11-05T21:05:10Z</time>
      </trkpt>
      <trkpt lat="46.59122" lon="-1.40406">
        <ele>59</ele>
        <time>2023-11-05T21:07:42Z</time>
      </trkpt>
      <trkpt lat="46.59107" lon="-1.40157">
        <ele>63</ele>
        <time>2023-11-05T21:11:31Z</time>
      </trkpt>
      <trkpt lat="46.59175" lon="-1.40183">
        <ele>65</ele>
        <time>2023-11-05T21:13:05Z</time>
      </trkpt>
      <trkpt lat="46.59216" lon="-1.3999">
        <ele>63</ele>
        <time>2023-11-05T21:16:10Z</time>
      </trkpt>
    </trkseg>
  </trk>
</gpx>